createdAt,value
2019-04-14T00:01:10.838Z,12.30
2019-04-14T00:03:43.288Z,12.30
2019-04-14T00:06:11.179Z,12.30
2019-04-14T00:08:39.358Z,12.30
2019-04-14T00:11:06.440Z,12.30
2019-04-14T00:13:33.233Z,12.30
2019-04-14T00:16:00.911Z,12.30
2019-04-14T00:18:27.701Z,12.40
2019-04-14T00:20:55.533Z,12.30
2019-04-14T00:23:22.202Z,12.40
2019-04-14T00:25:50.122Z,12.40
2019-04-14T00:28:17.009Z,12.50
2019-04-14T00:30:44.694Z,12.40
2019-04-14T00:33:17.008Z,12.40
2019-04-14T00:35:49.454Z,12.30
2019-04-14T00:38:18.138Z,12.30
2019-04-14T00:40:56.120Z,12.30
2019-04-14T00:43:24.775Z,12.30
2019-04-14T00:45:56.485Z,12.30
2019-04-14T00:48:24.289Z,12.30
2019-04-14T00:50:51.811Z,12.30
2019-04-14T00:53:18.582Z,12.30
2019-04-14T00:55:45.143Z,12.20
2019-04-14T00:58:12.769Z,12.20
2019-04-14T01:00:40.756Z,12.20
2019-04-14T01:03:09.149Z,12.20
2019-04-14T01:05:37.500Z,12.10
2019-04-14T01:08:05.154Z,12.00
2019-04-14T01:10:32.196Z,12.00
2019-04-14T01:12:58.576Z,12.10
2019-04-14T01:15:25.238Z,12.00
2019-04-14T01:17:52.894Z,12.00
2019-04-14T01:20:31.839Z,12.00
2019-04-14T01:22:59.779Z,12.00
2019-04-14T01:25:26.685Z,11.90
2019-04-14T01:27:53.788Z,11.90
2019-04-14T01:30:21.902Z,11.90
2019-04-14T01:32:49.990Z,11.80
2019-04-14T01:35:17.995Z,11.80
2019-04-14T01:37:44.927Z,11.80
2019-04-14T01:40:12.087Z,11.90
2019-04-14T01:42:39.851Z,11.90
2019-04-14T01:45:07.949Z,11.80
2019-04-14T01:47:35.635Z,11.90
2019-04-14T01:50:03.718Z,11.80
2019-04-14T01:52:38.504Z,11.80
2019-04-14T01:55:22.368Z,11.90
2019-04-14T01:57:50.963Z,11.90
2019-04-14T02:00:22.826Z,11.90
2019-04-14T02:02:50.936Z,11.80
2019-04-14T02:05:19.120Z,11.80
2019-04-14T02:07:47.007Z,11.80
2019-04-14T02:10:15.085Z,11.80
2019-04-14T02:12:43.110Z,11.80
2019-04-14T02:15:11.204Z,11.80
2019-04-14T02:17:39.149Z,11.90
2019-04-14T02:20:07.697Z,11.90
2019-04-14T02:22:35.519Z,11.80
2019-04-14T02:25:03.600Z,11.80
2019-04-14T02:27:30.162Z,11.80
2019-04-14T02:29:58.103Z,11.80
2019-04-14T02:32:49.399Z,11.90
2019-04-14T02:35:21.167Z,11.80
2019-04-14T02:40:21.542Z,11.80
2019-04-14T02:42:54.479Z,11.80
2019-04-14T02:45:19.866Z,11.80
2019-04-14T02:47:58.634Z,11.80
2019-04-14T02:50:10.917Z,11.80
2019-04-14T02:52:47.297Z,11.80
2019-04-14T02:55:04.804Z,11.90
2019-04-14T02:57:37.587Z,11.90
2019-04-14T03:07:45.781Z,11.80
2019-04-14T03:10:06.849Z,11.80
2019-04-14T03:15:03.467Z,11.80
2019-04-14T03:17:30.109Z,11.80
2019-04-14T03:22:45.954Z,11.80
2019-04-14T03:25:17.176Z,11.70
2019-04-14T03:27:58.626Z,11.70
2019-04-14T03:33:32.864Z,11.80
2019-04-14T03:38:11.377Z,11.80
2019-04-14T03:40:37.634Z,11.70
2019-04-14T03:43:03.160Z,11.80
2019-04-14T03:45:37.816Z,11.80
2019-04-14T03:48:31.580Z,11.80
2019-04-14T03:50:21.155Z,11.80
2019-04-14T03:55:08.067Z,11.80
2019-04-14T03:57:23.635Z,11.70
2019-04-14T03:59:50.094Z,11.80
2019-04-14T04:02:18.240Z,11.80
2019-04-14T04:04:44.991Z,11.80
2019-04-14T04:07:12.465Z,11.80
2019-04-14T04:09:41.263Z,11.70
2019-04-14T04:12:07.643Z,11.60
2019-04-14T04:14:35.585Z,11.60
2019-04-14T04:17:21.114Z,11.70
2019-04-14T04:19:53.454Z,11.70
2019-04-14T04:22:39.138Z,11.70
2019-04-14T04:25:20.404Z,11.60
2019-04-14T04:27:48.819Z,11.60
2019-04-14T04:30:29.746Z,11.70
2019-04-14T04:33:07.060Z,11.70
2019-04-14T04:35:39.296Z,11.80
2019-04-14T04:38:11.755Z,11.80
2019-04-14T04:40:39.627Z,11.70
2019-04-14T04:43:06.494Z,11.70
2019-04-14T04:45:34.109Z,11.60
2019-04-14T04:48:00.776Z,11.70
2019-04-14T04:50:28.203Z,11.60
2019-04-14T04:52:56.187Z,11.70
2019-04-14T04:55:22.773Z,11.60
2019-04-14T04:57:50.645Z,11.60
2019-04-14T05:00:17.850Z,11.60
2019-04-14T05:02:44.696Z,11.60
2019-04-14T05:05:49.243Z,11.60
2019-04-14T05:08:17.313Z,11.70
2019-04-14T05:10:50.090Z,11.80
2019-04-14T05:13:18.418Z,11.70
2019-04-14T05:15:47.423Z,11.70
2019-04-14T05:18:15.519Z,11.70
2019-04-14T05:20:46.320Z,11.60
2019-04-14T05:23:13.073Z,11.70
2019-04-14T05:25:40.790Z,11.70
2019-04-14T05:28:07.363Z,11.60
2019-04-14T05:30:34.924Z,11.70
2019-04-14T05:33:01.603Z,11.70
2019-04-14T05:35:29.039Z,11.60
2019-04-14T05:37:55.879Z,11.60
2019-04-14T05:40:23.388Z,11.60
2019-04-14T05:42:49.977Z,11.60
2019-04-14T05:45:17.561Z,11.60
2019-04-14T05:47:44.276Z,11.70
2019-04-14T05:50:11.688Z,11.70
2019-04-14T05:52:38.277Z,11.70
2019-04-14T05:55:06.772Z,11.70
2019-04-14T05:57:33.313Z,11.70
2019-04-14T05:59:59.707Z,11.60
2019-04-14T06:02:28.877Z,11.60
2019-04-14T06:04:55.034Z,11.60
2019-04-14T06:07:21.943Z,11.60
2019-04-14T06:09:48.502Z,11.70
2019-04-14T06:12:14.943Z,11.70
2019-04-14T06:14:41.505Z,11.60
2019-04-14T06:17:07.930Z,11.60
2019-04-14T06:19:37.939Z,11.60
2019-04-14T06:22:02.783Z,11.50
2019-04-14T06:24:29.415Z,11.50
2019-04-14T06:26:55.966Z,11.40
2019-04-14T06:29:22.500Z,11.40
2019-04-14T06:31:53.436Z,11.40
2019-04-14T06:34:23.102Z,11.40
2019-04-14T06:36:54.660Z,11.40
2019-04-14T06:39:32.182Z,11.40
2019-04-14T06:41:58.901Z,11.40
2019-04-14T06:44:25.524Z,11.40
2019-04-14T06:46:52.285Z,11.40
2019-04-14T06:49:18.931Z,11.50
2019-04-14T06:51:45.467Z,11.50
2019-04-14T06:54:11.939Z,11.60
2019-04-14T06:56:38.682Z,11.80
2019-04-14T06:59:05.310Z,11.80
2019-04-14T07:01:31.988Z,11.80
2019-04-14T07:03:58.599Z,11.80
2019-04-14T07:06:25.157Z,11.80
2019-04-14T07:08:51.867Z,11.70
2019-04-14T07:11:18.377Z,11.80
2019-04-14T07:13:47.824Z,11.80
2019-04-14T07:16:13.468Z,11.90
2019-04-14T07:18:40.065Z,11.90
2019-04-14T07:21:06.841Z,12.00
2019-04-14T07:23:33.431Z,11.90
2019-04-14T07:26:00.128Z,11.90
2019-04-14T07:28:26.686Z,12.00
2019-04-14T07:30:55.165Z,12.00
2019-04-14T07:33:38.744Z,12.10
2019-04-14T07:36:23.619Z,12.10
2019-04-14T07:39:08.675Z,12.10
2019-04-14T07:41:43.220Z,12.00
2019-04-14T07:44:17.546Z,12.00
2019-04-14T07:46:48.894Z,12.00
2019-04-14T07:49:17.304Z,12.00
2019-04-14T07:51:45.727Z,12.00
2019-04-14T07:54:14.207Z,12.00
2019-04-14T07:56:57.849Z,11.90
2019-04-14T07:59:41.177Z,11.90
2019-04-14T08:02:09.772Z,11.80
2019-04-14T08:04:41.017Z,11.90
2019-04-14T08:07:07.449Z,11.90
2019-04-14T08:09:33.992Z,11.90
2019-04-14T08:12:00.645Z,11.80
2019-04-14T08:14:27.439Z,11.90
2019-04-14T08:16:54.209Z,11.90
2019-04-14T08:19:20.644Z,11.90
2019-04-14T08:21:47.355Z,11.90
2019-04-14T08:24:13.984Z,12.00
2019-04-14T08:26:41.838Z,12.00
2019-04-14T08:29:08.658Z,12.00
2019-04-14T08:31:35.249Z,12.10
2019-04-14T08:34:01.890Z,12.10
2019-04-14T08:36:28.380Z,12.10
2019-04-14T08:38:55.089Z,12.10
2019-04-14T08:41:21.480Z,12.10
2019-04-14T08:44:02.050Z,12.20
2019-04-14T08:46:30.449Z,12.20
2019-04-14T08:49:01.773Z,12.30
2019-04-14T08:51:30.330Z,12.30
2019-04-14T08:54:15.565Z,12.30
2019-04-14T08:57:00.665Z,12.30
2019-04-14T08:59:38.332Z,12.30
2019-04-14T09:02:07.153Z,12.30
2019-04-14T09:04:52.282Z,12.30
2019-04-14T09:07:20.773Z,12.30
2019-04-14T09:09:49.289Z,12.30
2019-04-14T09:12:17.570Z,12.20
2019-04-14T09:14:57.146Z,12.30
2019-04-14T09:17:25.661Z,12.30
2019-04-14T09:19:52.229Z,12.30
2019-04-14T09:22:18.776Z,12.40
2019-04-14T09:24:46.130Z,12.30
2019-04-14T09:27:13.729Z,12.30
2019-04-14T09:29:40.516Z,12.40
2019-04-14T09:32:09.080Z,12.30
2019-04-14T09:34:37.814Z,12.40
2019-04-14T09:37:04.647Z,12.40
2019-04-14T09:39:31.404Z,12.50
2019-04-14T09:41:58.656Z,12.40
2019-04-14T09:44:25.572Z,12.40
2019-04-14T09:46:52.248Z,12.40
2019-04-14T09:49:18.827Z,12.40
2019-04-14T09:51:45.471Z,12.40
2019-04-14T09:54:31.883Z,12.50
2019-04-14T09:56:58.590Z,12.70
2019-04-14T09:59:25.242Z,12.70
2019-04-14T10:01:52.450Z,12.70
2019-04-14T10:04:19.148Z,12.90
2019-04-14T10:06:45.930Z,12.80
2019-04-14T10:09:12.812Z,13.00
2019-04-14T10:11:48.450Z,13.30
2019-04-14T10:14:09.004Z,13.20
2019-04-14T10:16:37.308Z,13.40
2019-04-14T10:19:03.879Z,13.60
2019-04-14T10:21:30.915Z,13.70
2019-04-14T10:23:57.680Z,13.80
2019-04-14T10:26:24.316Z,13.90
2019-04-14T10:28:51.023Z,13.90
2019-04-14T10:31:17.871Z,14.00
2019-04-14T10:33:44.727Z,14.00
2019-04-14T10:36:11.614Z,14.10
2019-04-14T10:38:38.180Z,14.20
2019-04-14T10:41:04.856Z,14.10
2019-04-14T10:43:31.809Z,14.10
2019-04-14T10:45:58.452Z,14.20
2019-04-14T10:48:24.874Z,14.10
2019-04-14T10:50:51.379Z,14.10
2019-04-14T10:53:17.953Z,14.30
2019-04-14T10:55:44.568Z,14.00
2019-04-14T10:58:11.196Z,13.90
2019-04-14T11:00:37.948Z,14.00
2019-04-14T11:03:04.767Z,13.90
2019-04-14T11:05:33.268Z,13.80
2019-04-14T11:08:00.032Z,13.80
2019-04-14T11:10:26.744Z,13.80
2019-04-14T11:12:53.901Z,13.90
2019-04-14T11:15:20.394Z,14.10
2019-04-14T11:17:47.134Z,14.10
2019-04-14T11:20:14.199Z,14.00
2019-04-14T11:22:40.852Z,14.10
2019-04-14T11:25:07.476Z,14.50
2019-04-14T11:27:33.912Z,14.60
2019-04-14T11:30:00.578Z,14.70
2019-04-14T11:32:29.148Z,14.70
2019-04-14T11:35:16.679Z,14.60
2019-04-14T11:38:04.238Z,14.50
2019-04-14T11:40:38.629Z,14.40
2019-04-14T11:43:05.093Z,14.50
2019-04-14T11:45:31.864Z,14.60
2019-04-14T11:47:58.476Z,14.80
2019-04-14T11:50:25.048Z,14.90
2019-04-14T11:52:51.499Z,15.00
2019-04-14T11:55:18.128Z,15.20
2019-04-14T11:57:44.921Z,14.90
2019-04-14T12:00:13.572Z,15.00
2019-04-14T12:02:54.048Z,15.00
2019-04-14T12:05:22.534Z,15.00
2019-04-14T12:07:56.830Z,15.10
2019-04-14T12:10:24.116Z,15.30
2019-04-14T12:12:50.629Z,15.60
2019-04-14T12:15:17.415Z,15.50
2019-04-14T12:17:43.881Z,15.60
2019-04-14T12:20:10.714Z,15.70
2019-04-14T12:22:37.421Z,15.80
2019-04-14T12:25:04.966Z,15.50
2019-04-14T12:27:31.742Z,15.80
2019-04-14T12:29:58.912Z,16.10
2019-04-14T12:32:28.105Z,16.10
2019-04-14T12:34:54.764Z,16.30
2019-04-14T12:37:23.100Z,16.50
2019-04-14T12:39:49.535Z,16.40
2019-04-14T12:42:26.711Z,16.40
2019-04-14T12:44:55.182Z,16.10
2019-04-14T12:47:40.071Z,16.20
2019-04-14T12:50:09.478Z,16.20
2019-04-14T12:52:37.542Z,16.20
2019-04-14T12:55:04.592Z,16.30
2019-04-14T12:57:39.191Z,16.50
2019-04-14T13:00:08.185Z,16.50
2019-04-14T13:02:37.140Z,16.70
2019-04-14T13:05:04.482Z,16.80
2019-04-14T13:07:32.238Z,16.20
2019-04-14T13:09:59.079Z,15.80
2019-04-14T13:12:25.778Z,15.60
2019-04-14T13:14:52.333Z,15.80
2019-04-14T13:17:18.786Z,16.40
2019-04-14T13:19:45.405Z,17.20
2019-04-14T13:22:12.164Z,17.40
2019-04-14T13:24:38.987Z,17.40
2019-04-14T13:27:05.879Z,17.20
2019-04-14T13:29:32.573Z,16.90
2019-04-14T13:31:59.344Z,17.10
2019-04-14T13:34:26.225Z,16.90
2019-04-14T13:36:52.839Z,16.60
2019-04-14T13:39:19.473Z,16.20
2019-04-14T13:41:45.985Z,16.00
2019-04-14T13:44:12.590Z,15.70
2019-04-14T13:46:39.407Z,15.70
2019-04-14T13:49:06.045Z,15.50
2019-04-14T13:51:32.752Z,15.60
2019-04-14T13:53:59.517Z,15.60
2019-04-14T19:09:54.071Z,13.20
2019-04-14T19:12:25.152Z,13.20
2019-04-14T19:14:53.526Z,13.30
2019-04-14T19:17:38.491Z,13.20
2019-04-14T19:20:05.545Z,13.20
2019-04-14T19:22:32.414Z,13.10
2019-04-14T19:25:07.835Z,13.10
2019-04-14T19:27:27.465Z,13.10
2019-04-14T19:29:54.169Z,13.10
2019-04-14T19:32:20.744Z,13.10
2019-04-14T19:34:47.428Z,13.00
2019-04-14T19:37:14.134Z,13.00
2019-04-14T19:39:40.840Z,12.90
2019-04-14T19:42:07.505Z,12.90
2019-04-14T19:44:34.216Z,12.90
2019-04-14T19:47:01.008Z,12.90
2019-04-14T19:49:27.645Z,12.90
2019-04-14T19:51:54.448Z,12.90
2019-04-14T19:54:21.205Z,12.90
2019-04-14T19:56:47.770Z,12.90
2019-04-14T19:59:16.118Z,12.80
2019-04-14T20:01:42.679Z,12.80
2019-04-14T20:04:09.319Z,12.80
2019-04-14T20:06:37.892Z,12.70
2019-04-14T20:09:05.974Z,12.70
2019-04-14T20:11:32.883Z,12.70
2019-04-14T20:13:59.453Z,12.70
2019-04-14T20:16:44.242Z,12.70
2019-04-14T20:19:32.041Z,12.70
2019-04-14T20:22:09.492Z,12.60
2019-04-14T20:24:38.157Z,12.60
2019-04-14T20:27:06.689Z,12.60
2019-04-14T20:29:35.204Z,12.70
2019-04-14T20:32:04.106Z,12.70
2019-04-14T20:34:31.887Z,12.70
2019-04-14T20:36:58.705Z,12.60
2019-04-14T20:39:26.271Z,12.60
2019-04-14T20:41:53.061Z,12.60
2019-04-14T20:44:19.938Z,12.60
2019-04-14T20:46:46.589Z,12.60
2019-04-14T20:49:13.368Z,12.60
2019-04-14T20:51:39.972Z,12.60
2019-04-14T20:54:06.802Z,12.60
2019-04-14T20:56:34.093Z,12.60
2019-04-14T20:59:00.758Z,12.60
2019-04-14T21:01:29.345Z,12.60
2019-04-14T21:03:57.878Z,12.60
2019-04-14T21:06:43.151Z,12.60
2019-04-14T21:09:20.618Z,12.60
2019-04-14T21:11:54.802Z,12.60
2019-04-14T21:14:40.009Z,12.60
2019-04-14T21:17:08.608Z,12.70
2019-04-14T21:19:53.682Z,12.60
2019-04-14T21:22:22.229Z,12.60
2019-04-14T21:25:02.552Z,12.60
2019-04-14T21:27:33.838Z,12.60
2019-04-14T21:30:14.114Z,12.40
2019-04-14T21:32:54.472Z,12.40
2019-04-14T21:35:22.905Z,12.40
2019-04-14T21:38:00.240Z,12.30
2019-04-14T21:40:45.411Z,12.20
2019-04-14T21:43:11.944Z,12.20
2019-04-14T21:45:38.822Z,12.30
2019-04-14T21:48:05.415Z,12.40
2019-04-14T21:50:32.082Z,12.30
2019-04-14T21:52:58.774Z,12.30
2019-04-14T21:55:27.491Z,12.10
2019-04-14T21:57:57.923Z,12.10
2019-04-14T22:00:51.535Z,12.30
2019-04-14T22:03:30.797Z,12.40
2019-04-14T22:06:04.884Z,12.40
2019-04-14T22:08:33.486Z,12.30
2019-04-14T22:11:07.870Z,12.30
2019-04-14T22:13:34.510Z,12.30
2019-04-14T22:16:01.610Z,12.20
2019-04-14T22:18:28.163Z,12.30
2019-04-14T22:20:54.941Z,12.30
2019-04-14T22:23:21.614Z,12.30
2019-04-14T22:25:48.176Z,12.30
2019-04-14T22:28:14.831Z,12.30
2019-04-14T22:30:41.428Z,12.30
2019-04-14T22:33:09.370Z,12.20
2019-04-14T22:35:35.994Z,12.30
2019-04-14T22:38:02.559Z,12.20
2019-04-14T22:40:29.282Z,12.20
2019-04-14T22:42:55.968Z,12.20
2019-04-14T22:45:22.962Z,12.30
2019-04-14T22:47:49.547Z,12.30
2019-04-14T22:50:16.303Z,12.30
2019-04-14T22:52:42.952Z,12.30
2019-04-14T22:55:09.581Z,12.30
2019-04-14T22:57:36.099Z,12.30
2019-04-14T23:00:06.665Z,12.30
2019-04-14T23:02:54.890Z,12.30
2019-04-14T23:05:32.239Z,12.10
2019-04-14T23:08:00.695Z,12.10
2019-04-14T23:10:29.233Z,12.10
2019-04-14T23:12:57.757Z,12.00
2019-04-14T23:15:42.694Z,12.10
2019-04-14T23:18:11.250Z,12.10
2019-04-14T23:20:42.860Z,12.10
2019-04-14T23:23:20.482Z,12.00
2019-04-14T23:25:48.939Z,12.10
2019-04-14T23:28:16.116Z,12.10
2019-04-14T23:30:42.620Z,12.00
2019-04-14T23:33:09.273Z,12.00
2019-04-14T23:35:35.863Z,11.90
2019-04-14T23:38:02.664Z,11.80
2019-04-14T23:40:32.622Z,11.80
2019-04-14T23:42:59.278Z,11.80
2019-04-14T23:45:26.440Z,11.80
2019-04-14T23:47:53.651Z,11.80
2019-04-14T23:50:20.554Z,11.70
2019-04-14T23:52:47.254Z,11.70
2019-04-14T23:55:14.171Z,11.70
2019-04-14T23:57:40.784Z,11.80
